createdAt,value
2022-12-03T00:03:08.832Z,17.62
2022-12-03T00:08:10.280Z,19.70
2022-12-03T00:13:11.302Z,18.20
2022-12-03T00:18:12.719Z,19.67
2022-12-03T00:23:13.728Z,20.33
2022-12-03T00:28:15.038Z,17.33
2022-12-03T00:33:15.952Z,21.90
2022-12-03T00:38:17.315Z,22.33
2022-12-03T00:43:18.235Z,24.95
2022-12-03T00:48:19.698Z,26.17
2022-12-03T00:53:20.661Z,21.87
2022-12-03T00:58:21.969Z,25.20
2022-12-03T01:03:22.912Z,21.62
2022-12-03T01:08:24.205Z,29.30
2022-12-03T01:13:25.266Z,28.52
2022-12-03T01:18:26.518Z,30.90
2022-12-03T01:23:27.421Z,27.23
2022-12-03T01:28:28.834Z,34.53
2022-12-03T01:33:29.741Z,33.00
2022-12-03T01:38:30.945Z,29.87
2022-12-03T01:43:31.916Z,29.95
2022-12-03T01:48:37.152Z,31.37
2022-12-03T01:53:38.092Z,31.77
2022-12-03T01:58:41.319Z,36.45
2022-12-03T02:03:43.662Z,34.90
2022-12-03T02:08:45.990Z,27.58
2022-12-03T02:13:54.601Z,36.28
2022-12-03T02:18:57.417Z,37.33
2022-12-03T02:24:13.961Z,34.13
2022-12-03T02:29:15.285Z,34.42
2022-12-03T02:34:40.955Z,37.50
2022-12-03T02:39:47.623Z,33.42
2022-12-03T02:44:48.538Z,34.47
2022-12-03T02:49:50.962Z,32.35
2022-12-03T02:54:53.050Z,36.47
2022-12-03T02:59:55.762Z,35.40
2022-12-03T03:04:57.319Z,40.60
2022-12-03T03:10:00.244Z,39.72
2022-12-03T03:15:01.377Z,35.78
2022-12-03T03:20:04.778Z,39.35
2022-12-03T03:25:15.259Z,38.35
2022-12-03T03:30:16.822Z,41.00
2022-12-03T03:35:18.115Z,43.80
2022-12-03T03:40:21.120Z,42.75
2022-12-03T03:45:28.855Z,39.58
2022-12-03T03:50:32.025Z,41.08
2022-12-03T03:55:33.892Z,38.20
2022-12-03T04:00:36.407Z,42.70
2022-12-03T04:05:40.598Z,45.38
2022-12-03T04:11:00.371Z,43.92
2022-12-03T04:16:01.656Z,49.42
2022-12-03T04:21:21.476Z,53.45
2022-12-03T04:26:41.754Z,49.88
2022-12-03T04:32:01.809Z,50.95
2022-12-03T04:37:03.179Z,53.60
2022-12-03T04:42:06.047Z,50.83
2022-12-03T04:47:16.988Z,47.55
2022-12-03T04:52:19.825Z,51.45
2022-12-03T04:57:20.627Z,52.62
2022-12-03T05:02:21.884Z,50.03
2022-12-03T05:07:22.869Z,47.38
2022-12-03T05:12:24.155Z,54.88
2022-12-03T05:17:25.135Z,48.53
2022-12-03T05:22:26.788Z,50.22
2022-12-03T05:27:27.763Z,52.45
2022-12-03T05:32:29.091Z,51.63
2022-12-03T05:37:30.115Z,51.13
2022-12-03T05:42:49.985Z,50.80
2022-12-03T05:47:52.719Z,51.37
2022-12-03T05:52:54.084Z,52.33
2022-12-03T05:57:55.139Z,50.67
2022-12-03T06:02:57.149Z,56.22
2022-12-03T06:07:58.914Z,48.15
2022-12-03T06:13:01.612Z,49.38
2022-12-03T06:18:02.615Z,51.72
2022-12-03T06:23:04.027Z,47.45
2022-12-03T06:28:06.202Z,55.28
2022-12-03T06:33:07.617Z,52.25
2022-12-03T06:38:08.450Z,48.55
2022-12-03T06:43:09.550Z,46.22
2022-12-03T06:48:10.598Z,47.17
2022-12-03T06:53:11.901Z,51.08
2022-12-03T06:58:12.908Z,47.97
2022-12-03T07:03:13.944Z,48.50
2022-12-03T07:08:14.774Z,50.47
2022-12-03T07:13:15.629Z,53.78
2022-12-03T07:18:16.330Z,47.62
2022-12-03T07:23:17.244Z,55.08
2022-12-03T07:28:17.955Z,54.80
2022-12-03T07:33:18.735Z,58.13
2022-12-03T07:38:19.454Z,45.47
2022-12-03T07:43:20.427Z,54.47
2022-12-03T07:48:21.153Z,52.67
2022-12-03T07:53:22.121Z,51.55
2022-12-03T07:58:22.900Z,49.17
2022-12-03T08:03:24.058Z,49.05
2022-12-03T08:08:24.838Z,54.63
2022-12-03T08:13:26.950Z,57.10
2022-12-03T08:18:28.119Z,51.88
2022-12-03T08:23:28.985Z,55.53
2022-12-03T08:28:31.184Z,49.35
2022-12-03T08:33:34.669Z,51.17
2022-12-03T08:38:35.734Z,58.13
2022-12-03T08:43:41.503Z,52.17
2022-12-03T08:48:48.703Z,53.90
2022-12-03T08:54:01.579Z,49.63
2022-12-03T08:59:24.933Z,52.92
2022-12-03T09:04:44.424Z,52.17
2022-12-03T09:09:45.166Z,57.88
2022-12-03T09:14:46.283Z,59.13
2022-12-03T09:19:47.252Z,59.08
2022-12-03T09:24:48.114Z,57.08
2022-12-03T09:29:49.872Z,57.80
2022-12-03T09:34:50.913Z,56.10
2022-12-03T09:39:51.664Z,57.67
2022-12-03T09:44:53.968Z,58.22
2022-12-03T09:49:55.922Z,63.55
2022-12-03T09:54:58.798Z,58.77
2022-12-03T09:59:59.774Z,53.58
2022-12-03T10:05:01.207Z,69.47
2022-12-03T10:10:02.403Z,69.12
2022-12-03T10:15:04.292Z,67.32
2022-12-03T10:20:07.012Z,56.50
2022-12-03T10:25:14.792Z,63.17
2022-12-03T10:30:21.625Z,57.67
2022-12-03T10:35:35.231Z,51.17
2022-12-03T10:40:38.357Z,55.78
2022-12-03T10:50:51.414Z,54.47
2022-12-03T10:55:58.585Z,57.07
2022-12-03T11:01:02.764Z,56.05
2022-12-03T11:06:03.871Z,56.83
2022-12-03T11:11:16.922Z,58.70
2022-12-03T11:17:18.944Z,61.70
2022-12-03T11:22:37.601Z,57.28
2022-12-03T11:27:39.363Z,54.25
2022-12-03T11:32:59.660Z,56.85
2022-12-03T11:45:08.075Z,49.17
2022-12-03T11:50:40.291Z,53.67
2022-12-03T11:55:48.041Z,59.70
2022-12-03T12:00:57.701Z,55.10
2022-12-03T12:06:13.963Z,58.30
2022-12-03T12:11:24.794Z,53.63
2022-12-03T12:17:35.947Z,54.03
2022-12-03T12:22:36.785Z,61.55
2022-12-03T12:27:48.581Z,55.72
2022-12-03T12:32:52.692Z,46.22
2022-12-03T12:38:33.488Z,49.38
2022-12-03T12:43:35.254Z,47.75
2022-12-03T12:48:36.031Z,52.85
2022-12-03T12:53:38.817Z,52.80
2022-12-03T12:58:40.219Z,48.50
2022-12-03T13:03:41.277Z,49.40
2022-12-03T13:08:44.814Z,54.83
2022-12-03T13:13:45.569Z,50.45
2022-12-03T13:18:53.826Z,49.90
2022-12-03T13:23:56.585Z,47.22
2022-12-03T13:28:57.862Z,48.97
2022-12-03T13:34:00.993Z,45.63
2022-12-03T13:39:18.092Z,48.42
2022-12-03T13:44:19.247Z,48.20
2022-12-03T13:49:22.368Z,52.65
2022-12-03T13:59:27.748Z,49.80
2022-12-03T14:04:28.823Z,57.25
2022-12-03T14:09:29.608Z,53.25
2022-12-03T14:14:30.414Z,54.83
2022-12-03T14:19:31.782Z,57.62
2022-12-03T14:24:32.604Z,59.38
2022-12-03T14:29:33.361Z,55.97
2022-12-03T14:34:34.205Z,55.88
2022-12-03T14:39:36.323Z,58.38
2022-12-03T14:44:37.086Z,50.67
2022-12-03T14:49:38.042Z,58.83
2022-12-03T14:54:41.310Z,59.47
2022-12-03T14:59:43.416Z,64.43
2022-12-03T15:04:44.323Z,60.13
2022-12-03T15:09:45.311Z,58.47
2022-12-03T15:14:46.878Z,66.25
2022-12-03T15:19:47.626Z,60.42
2022-12-03T15:24:48.458Z,67.90
2022-12-03T15:29:49.240Z,64.95
2022-12-03T15:34:50.581Z,63.85
2022-12-03T15:39:51.315Z,68.82
2022-12-03T15:44:52.064Z,67.18
2022-12-03T15:49:53.250Z,73.18
2022-12-03T15:54:55.048Z,70.97
2022-12-03T15:59:57.409Z,69.68
2022-12-03T16:05:00.886Z,67.60
2022-12-03T16:15:03.183Z,70.22
2022-12-03T16:20:05.934Z,75.37
2022-12-03T16:25:07.691Z,75.37
2022-12-03T16:30:10.190Z,78.35
2022-12-03T16:35:11.048Z,76.25
2022-12-03T16:40:11.902Z,68.85
2022-12-03T16:45:32.765Z,70.47
2022-12-03T16:50:36.737Z,70.35
2022-12-03T16:55:37.464Z,73.50
2022-12-03T17:00:38.272Z,74.30
2022-12-03T17:05:39.090Z,75.37
2022-12-03T17:10:39.971Z,74.47
2022-12-03T17:15:40.943Z,72.72
2022-12-03T17:20:42.046Z,80.95
2022-12-03T17:25:42.781Z,74.45
2022-12-03T17:30:43.674Z,72.75
2022-12-03T17:35:45.729Z,73.05
2022-12-03T17:40:46.474Z,63.33
2022-12-03T17:45:47.436Z,74.68
2022-12-03T17:50:48.170Z,67.62
2022-12-03T17:55:48.980Z,76.55
2022-12-03T18:00:50.158Z,68.62
2022-12-03T18:05:51.044Z,70.20
2022-12-03T18:10:51.823Z,74.00
2022-12-03T18:15:52.910Z,78.40
2022-12-03T18:20:53.947Z,76.03
2022-12-03T18:25:55.699Z,75.82
2022-12-03T18:30:57.679Z,76.45
2022-12-03T18:35:58.724Z,73.80
2022-12-03T18:40:59.570Z,73.32
2022-12-03T18:46:00.373Z,72.47
2022-12-03T18:51:01.144Z,76.82
2022-12-03T18:56:01.884Z,75.22
2022-12-03T19:01:04.027Z,75.05
2022-12-03T19:06:05.323Z,76.67
2022-12-03T19:11:06.436Z,72.12
2022-12-03T19:16:10.073Z,70.28
2022-12-03T19:21:15.891Z,72.68
2022-12-03T19:26:16.637Z,74.00
2022-12-03T19:31:18.275Z,81.68
2022-12-03T19:36:22.349Z,76.10
2022-12-03T19:41:26.512Z,77.18
2022-12-03T19:46:29.478Z,73.20
2022-12-03T19:51:35.170Z,79.45
2022-12-03T19:56:36.625Z,73.60
2022-12-03T20:01:39.611Z,68.05
2022-12-03T20:11:41.940Z,73.20
2022-12-03T20:16:44.137Z,70.95
2022-12-03T20:21:45.164Z,65.77
2022-12-03T20:26:45.974Z,64.45
2022-12-03T20:31:46.786Z,61.33
2022-12-03T20:36:47.886Z,63.03
2022-12-03T20:41:48.614Z,61.72
2022-12-03T20:46:49.476Z,61.72
2022-12-03T20:51:50.192Z,65.57
2022-12-03T20:56:50.954Z,57.75
2022-12-03T21:01:51.827Z,60.50
2022-12-03T21:06:52.990Z,51.53
2022-12-03T21:11:54.177Z,52.58
2022-12-03T21:17:11.113Z,52.47
2022-12-03T21:22:12.269Z,50.22
2022-12-03T21:27:17.009Z,50.08
2022-12-03T21:32:22.206Z,45.35
2022-12-03T21:37:23.018Z,49.83
2022-12-03T21:42:35.417Z,48.78
2022-12-03T21:47:38.144Z,46.17
2022-12-03T21:52:39.152Z,46.25
2022-12-03T21:57:39.935Z,40.65
2022-12-03T22:02:40.779Z,44.08
2022-12-03T22:07:41.903Z,42.10
2022-12-03T22:12:42.776Z,40.10
2022-12-03T22:17:43.560Z,39.65
2022-12-03T22:22:44.407Z,40.20
2022-12-03T22:27:45.158Z,36.90
2022-12-03T22:32:45.929Z,40.58
2022-12-03T22:37:46.789Z,38.03
2022-12-03T22:42:50.973Z,35.58
2022-12-03T22:47:52.309Z,37.58
2022-12-03T22:52:53.084Z,38.65
2022-12-03T22:57:54.035Z,38.65
2022-12-03T23:02:54.868Z,36.95
2022-12-03T23:07:55.866Z,39.72
2022-12-03T23:12:56.669Z,36.13
2022-12-03T23:17:57.926Z,34.13
2022-12-03T23:22:58.659Z,36.35
2022-12-03T23:27:59.405Z,38.47
2022-12-03T23:33:00.164Z,37.55
2022-12-03T23:38:01.551Z,34.63
2022-12-03T23:43:02.297Z,38.28
2022-12-03T23:48:03.308Z,42.15
2022-12-03T23:53:04.050Z,42.10
2022-12-03T23:58:04.821Z,36.70
